Time;durP1;ratioP1;P1;durP2;ratioP2;P2;SDS_P1;SDS_P2;PMS_P1;PMS_P2;Temp;Humidity;BMP_temperature;BMP_pressure;BME280_temperature;BME280_humidity;BME280_pressure;Samples;Min_cycle;Max_cycle;Signal;HPM_P1;HPM_P2
2023/02/02 00:01:32;;;;;;;15.88;4.32;;;;;;;5.38;100.00;102092.56;5008070;28;20074;-70
2023/02/02 00:03:58;;;;;;;15.98;4.68;;;;;;;5.34;100.00;102084.94;5027992;28;20037;-70
2023/02/02 00:06:24;;;;;;;20.75;4.70;;;;;;;5.34;100.00;102095.97;5000920;28;20028;-70
2023/02/02 00:08:50;;;;;;;19.80;4.55;;;;;;;5.33;100.00;102097.03;5011086;28;20458;-70
2023/02/02 00:11:16;;;;;;;15.70;4.50;;;;;;;5.31;100.00;102104.66;5003744;28;20112;-71
2023/02/02 00:13:41;;;;;;;20.10;4.75;;;;;;;5.25;100.00;102095.38;5033286;28;20397;-70
2023/02/02 00:16:25;;;;;;;13.15;4.00;;;;;;;5.20;100.00;102094.34;5033999;28;20036;-70
2023/02/02 00:18:55;;;;;;;15.95;4.78;;;;;;;5.20;100.00;102097.09;5027217;28;20120;-70
2023/02/02 00:21:20;;;;;;;14.25;4.60;;;;;;;5.12;100.00;102096.28;5033569;28;20034;-70
2023/02/02 00:23:46;;;;;;;15.65;4.82;;;;;;;5.10;100.00;102108.59;5010430;28;20393;-71
2023/02/02 00:26:11;;;;;;;14.38;3.97;;;;;;;5.06;100.00;102101.81;5000437;28;20036;-70
2023/02/02 00:28:37;;;;;;;14.60;4.28;;;;;;;5.01;100.00;102094.19;5019207;28;20385;-70
2023/02/02 00:31:02;;;;;;;16.65;3.92;;;;;;;4.99;100.00;102092.75;5055117;28;20371;-70
2023/02/02 00:33:28;;;;;;;15.02;4.57;;;;;;;4.96;100.00;102085.78;5003780;28;20028;-70
2023/02/02 00:35:53;;;;;;;20.70;4.82;;;;;;;4.93;100.00;102088.94;5036492;28;20033;-73
2023/02/02 00:38:19;;;;;;;13.02;4.00;;;;;;;4.90;100.00;102094.88;5053345;28;20061;-70
2023/02/02 00:40:44;;;;;;;19.05;4.45;;;;;;;4.87;100.00;102082.41;5000692;28;20030;-70
2023/02/02 00:43:10;;;;;;;13.80;4.10;;;;;;;4.86;100.00;102091.72;5036716;28;20478;-70
2023/02/02 00:45:36;;;;;;;15.55;4.03;;;;;;;4.83;100.00;102094.94;4993615;28;20418;-70
2023/02/02 00:48:02;;;;;;;18.15;4.32;;;;;;;4.82;100.00;102089.63;4997199;28;20516;-70
2023/02/02 00:50:27;;;;;;;11.10;4.20;;;;;;;4.81;100.00;102090.69;5017149;28;20050;-70
2023/02/02 00:52:53;;;;;;;18.48;4.07;;;;;;;4.76;100.00;102087.75;5007990;28;20021;-70
2023/02/02 00:55:19;;;;;;;17.15;4.95;;;;;;;4.75;100.00;102097.91;5034902;28;20037;-70
2023/02/02 00:57:44;;;;;;;16.42;4.00;;;;;;;4.74;100.00;102076.13;5000244;28;20367;-70
2023/02/02 01:00:12;;;;;;;13.93;3.88;;;;;;;4.76;100.00;102090.50;5036121;28;20033;-70
2023/02/02 01:02:38;;;;;;;15.18;3.92;;;;;;;4.71;100.00;102082.91;5004338;28;20132;-70
2023/02/02 01:05:04;;;;;;;17.92;4.35;;;;;;;4.74;100.00;102076.97;5036513;28;20494;-70
2023/02/02 01:07:29;;;;;;;17.17;4.47;;;;;;;4.76;100.00;102076.72;5013037;28;20040;-70
2023/02/02 01:09:55;;;;;;;11.05;3.70;;;;;;;4.75;100.00;102075.91;5003677;28;20093;-70
2023/02/02 01:12:20;;;;;;;13.43;4.03;;;;;;;4.77;100.00;102075.69;5032122;28;20021;-70
2023/02/02 01:14:46;;;;;;;16.58;3.70;;;;;;;4.77;100.00;102073.78;5023355;28;20035;-70
2023/02/02 01:17:12;;;;;;;11.05;3.53;;;;;;;4.77;100.00;102067.44;5023784;28;20029;-70
2023/02/02 01:19:38;;;;;;;15.13;4.00;;;;;;;4.78;100.00;102069.94;5003484;28;20025;-70
2023/02/02 01:22:03;;;;;;;14.68;3.95;;;;;;;4.78;100.00;102066.34;5007537;28;20478;-70
2023/02/02 01:24:29;;;;;;;13.52;3.40;;;;;;;4.79;100.00;102062.53;5019897;28;20600;-70
2023/02/02 01:26:54;;;;;;;11.50;3.95;;;;;;;4.82;100.00;102056.59;5044654;28;20104;-70
2023/02/02 01:29:20;;;;;;;13.13;3.33;;;;;;;4.82;100.00;102057.47;4993204;28;20032;-70
2023/02/02 01:31:46;;;;;;;19.85;4.35;;;;;;;4.82;100.00;102056.59;5037722;28;20105;-70
2023/02/02 01:34:11;;;;;;;17.67;4.20;;;;;;;4.83;100.00;102059.13;5057284;28;20033;-70
2023/02/02 01:36:37;;;;;;;14.35;3.45;;;;;;;4.82;100.00;102057.47;5039515;28;20037;-70
2023/02/02 01:39:02;;;;;;;15.63;4.20;;;;;;;4.81;100.00;102065.91;5021499;28;20432;-70
2023/02/02 01:41:28;;;;;;;11.52;3.58;;;;;;;4.82;100.00;102073.09;5066663;28;20127;-70
2023/02/02 01:44:00;;;;;;;12.82;3.28;;;;;;;4.84;100.00;102079.25;5043210;28;20106;-70
2023/02/02 01:46:30;;;;;;;9.88;2.85;;;;;;;4.85;100.00;102089.22;5020037;28;20150;-70
2023/02/02 01:49:01;;;;;;;13.27;3.80;;;;;;;4.86;100.00;102071.63;5003844;28;20060;-70
2023/02/02 01:51:33;;;;;;;13.48;3.80;;;;;;;4.86;100.00;102068.88;5048989;28;20029;-71
2023/02/02 01:53:59;;;;;;;12.88;3.38;;;;;;;4.87;100.00;102076.06;5036522;28;20037;-70
2023/02/02 01:56:31;;;;;;;13.02;3.58;;;;;;;4.88;100.00;102078.59;5036868;28;20037;-70
2023/02/02 01:58:57;;;;;;;10.85;3.47;;;;;;;4.85;100.00;102068.03;5019277;28;20059;-70
2023/02/02 02:01:22;;;;;;;12.60;3.60;;;;;;;4.83;100.00;102070.16;5025712;28;20042;-71
2023/02/02 02:03:48;;;;;;;14.85;3.78;;;;;;;4.83;100.00;102069.31;5020651;28;20021;-70
2023/02/02 02:06:15;;;;;;;11.55;3.33;;;;;;;4.82;100.00;102068.47;5014394;28;20033;-70
2023/02/02 02:08:57;;;;;;;14.73;3.85;;;;;;;4.82;100.00;102070.34;5039301;28;20033;-70
2023/02/02 02:11:23;;;;;;;7.85;3.00;;;;;;;4.80;100.00;102064.25;5035053;28;20056;-70
2023/02/02 02:16:45;;;;;;;12.93;3.35;;;;;;;4.76;100.00;102061.06;5027830;28;20036;-70
2023/02/02 02:26:32;;;;;;;13.48;3.50;;;;;;;4.75;100.00;102069.56;5008643;28;20459;-70
2023/02/02 02:28:23;;;;;;;;;;;;;;;4.68;100.00;102073.19;5042759;28;20025;-70
2023/02/02 02:30:57;;;;;;;10.00;3.50;;;;;;;4.67;100.00;102084.38;5048469;28;19980;-70
2023/02/02 02:33:26;;;;;;;11.43;3.38;;;;;;;4.65;100.00;102090.13;5035396;28;20033;-70
2023/02/02 02:36:34;;;;;;;6.50;3.03;;;;;;;4.66;100.00;102089.06;5053874;28;20037;-70
2023/02/02 02:39:11;;;;;;;12.75;3.42;;;;;;;4.64;100.00;102093.91;5054792;28;20154;-70
2023/02/02 02:41:42;;;;;;;11.85;3.97;;;;;;;4.64;100.00;102093.91;5039054;28;20057;-70
2023/02/02 02:44:09;;;;;;;14.45;3.60;;;;;;;4.66;100.00;102082.72;5003980;28;20033;-70
2023/02/02 02:46:35;;;;;;;12.27;3.85;;;;;;;4.66;100.00;102075.28;5007759;28;20033;-70
2023/02/02 02:49:00;;;;;;;14.27;4.00;;;;;;;4.67;100.00;102085.22;5015081;28;20124;-70
2023/02/02 02:51:45;;;;;;;11.73;3.40;;;;;;;4.66;100.00;102072.53;5036160;28;20100;-70
2023/02/02 02:54:30;;;;;;;10.70;3.72;;;;;;;4.66;100.00;102075.28;5027402;28;20521;-70
2023/02/02 02:56:58;;;;;;;18.65;4.40;;;;;;;4.68;100.00;102066.81;5008942;28;20083;-70
2023/02/02 02:59:42;;;;;;;11.80;4.05;;;;;;;4.69;100.00;102066.59;5021568;28;20043;-70
2023/02/02 03:02:20;;;;;;;13.52;3.70;;;;;;;4.70;100.00;102071.03;5030164;28;20084;-70
2023/02/02 03:04:48;;;;;;;15.38;4.13;;;;;;;4.73;100.00;102074.41;5044292;28;20041;-70
2023/02/02 03:07:22;;;;;;;12.32;4.30;;;;;;;4.73;100.00;102068.91;5034755;28;20060;-70
2023/02/02 03:09:48;;;;;;;15.00;4.10;;;;;;;4.74;100.00;102065.13;5002751;28;20033;-70
2023/02/02 03:12:15;;;;;;;16.35;3.78;;;;;;;4.74;100.00;102063.22;4984971;28;20087;-70
2023/02/02 03:14:41;;;;;;;13.90;3.80;;;;;;;4.77;100.00;102053.66;5017717;28;20108;-70
2023/02/02 03:17:07;;;;;;;15.85;3.72;;;;;;;4.77;100.00;102056.44;4985618;28;20563;-71
2023/02/02 03:19:32;;;;;;;16.92;4.10;;;;;;;4.78;100.00;102060.84;5035777;28;20029;-70
2023/02/02 03:21:58;;;;;;;11.55;4.05;;;;;;;4.78;100.00;102060.84;5052518;28;20083;-70
2023/02/02 03:24:23;;;;;;;16.92;3.97;;;;;;;4.77;100.00;102056.44;5054095;28;20028;-70
2023/02/02 03:26:49;;;;;;;13.35;4.05;;;;;;;4.81;100.00;102060.41;5009794;28;20052;-70
2023/02/02 03:29:14;;;;;;;14.60;4.00;;;;;;;4.80;100.00;102059.56;5004808;28;20028;-70
2023/02/02 03:31:40;;;;;;;17.52;5.07;;;;;;;4.81;100.00;102057.66;5012418;28;20034;-70
2023/02/02 03:34:05;;;;;;;16.83;4.28;;;;;;;4.82;100.00;102067.59;5017665;28;20029;-70
2023/02/02 03:36:31;;;;;;;11.45;4.35;;;;;;;4.84;100.00;102059.97;5034330;28;20555;-70
2023/02/02 03:38:56;;;;;;;13.45;4.25;;;;;;;4.86;100.00;102066.13;5029580;28;20053;-70
2023/02/02 03:41:21;;;;;;;13.40;4.47;;;;;;;4.87;100.00;102059.53;5033748;28;20018;-70
2023/02/02 03:43:48;;;;;;;11.40;3.95;;;;;;;4.88;100.00;102066.75;5051342;28;20425;-70
2023/02/02 03:46:14;;;;;;;17.45;4.57;;;;;;;4.90;100.00;102067.34;5035762;28;20025;-70
2023/02/02 03:48:39;;;;;;;12.45;4.72;;;;;;;4.90;100.00;102072.88;5000963;28;20029;-70
2023/02/02 03:51:10;;;;;;;16.90;4.53;;;;;;;4.89;100.00;102069.28;5030178;28;20021;-70
2023/02/02 03:53:36;;;;;;;11.20;4.20;;;;;;;4.90;100.00;102064.59;5031374;28;20442;-70
2023/02/02 03:56:01;;;;;;;13.32;4.55;;;;;;;4.90;100.00;102076.47;5043183;28;20025;-70
2023/02/02 03:58:26;;;;;;;17.20;4.25;;;;;;;4.91;100.00;102078.16;5001100;28;20498;-70
2023/02/02 04:00:54;;;;;;;19.48;4.35;;;;;;;4.92;100.00;102084.50;5001075;28;20021;-70
2023/02/02 04:03:19;;;;;;;12.98;4.38;;;;;;;4.92;100.00;102076.25;4989670;28;20025;-70
2023/02/02 04:05:48;;;;;;;12.70;4.30;;;;;;;4.92;100.00;102079.00;5010322;28;20033;-70
2023/02/02 04:08:14;;;;;;;14.32;4.22;;;;;;;4.95;100.00;102081.31;5002661;28;20478;-70
2023/02/02 04:10:41;;;;;;;16.67;4.78;;;;;;;4.93;100.00;102065.03;5017459;28;20111;-70
2023/02/02 04:13:06;;;;;;;13.68;4.07;;;;;;;4.94;100.00;102076.88;5033608;28;20033;-70
2023/02/02 04:15:32;;;;;;;14.98;4.97;;;;;;;4.93;100.00;102077.94;5024423;28;20048;-70
2023/02/02 04:17:57;;;;;;;12.05;4.38;;;;;;;4.94;100.00;102082.38;5002990;28;20036;-70
2023/02/02 04:20:23;;;;;;;11.77;4.35;;;;;;;4.94;100.00;102082.38;5017211;28;20034;-70
2023/02/02 04:22:48;;;;;;;10.88;4.72;;;;;;;4.96;100.00;102085.78;5017220;28;20643;-70
2023/02/02 04:25:14;;;;;;;15.23;4.35;;;;;;;4.96;100.00;102083.03;5001032;28;20036;-70
2023/02/02 04:27:39;;;;;;;10.00;4.00;;;;;;;4.97;100.00;102086.63;5016374;28;20025;-70
2023/02/02 04:30:05;;;;;;;15.32;4.30;;;;;;;4.95;100.00;102078.56;5009156;28;20482;-71
2023/02/02 04:32:31;;;;;;;14.65;4.15;;;;;;;4.96;100.00;102077.53;5015576;28;20025;-70
2023/02/02 04:34:56;;;;;;;13.48;3.90;;;;;;;4.98;100.00;102077.28;4996558;28;20079;-70
2023/02/02 04:37:22;;;;;;;10.20;4.07;;;;;;;4.97;100.00;102081.94;5021055;28;20038;-70
2023/02/02 04:39:47;;;;;;;14.23;4.05;;;;;;;4.98;100.00;102083.63;5029744;28;20065;-71
2023/02/02 04:42:13;;;;;;;14.73;4.35;;;;;;;4.98;100.00;102089.13;5038008;28;20030;-70
2023/02/02 04:44:38;;;;;;;10.85;3.88;;;;;;;4.98;100.00;102086.38;5030141;28;20382;-70
2023/02/02 04:47:04;;;;;;;12.98;4.15;;;;;;;4.98;100.00;102083.63;5006788;28;20021;-70
2023/02/02 04:49:30;;;;;;;17.15;4.70;;;;;;;4.99;100.00;102079.84;5004225;28;20045;-70
2023/02/02 04:51:56;;;;;;;12.30;3.47;;;;;;;5.01;100.00;102082.34;5037297;28;20033;-70
2023/02/02 04:54:21;;;;;;;13.10;4.05;;;;;;;5.01;100.00;102085.09;5007213;28;20025;-70
2023/02/02 04:56:47;;;;;;;8.18;4.18;;;;;;;5.00;100.00;102087.03;5003836;28;20549;-70
2023/02/02 04:59:12;;;;;;;11.95;3.75;;;;;;;5.01;100.00;102085.09;4998190;28;20033;-70
2023/02/02 05:01:38;;;;;;;11.82;4.20;;;;;;;5.01;100.00;102085.94;5023216;28;20034;-70
2023/02/02 05:04:03;;;;;;;13.73;3.80;;;;;;;5.01;100.00;102093.38;5003974;28;20036;-70
2023/02/02 05:06:28;;;;;;;10.73;3.78;;;;;;;5.01;100.00;102094.19;5004561;28;20052;-70
2023/02/02 05:08:54;;;;;;;9.73;4.15;;;;;;;5.00;100.00;102088.94;5040136;28;20041;-70
2023/02/02 05:11:21;;;;;;;10.27;3.95;;;;;;;5.00;100.00;102092.53;5006848;28;20466;-70
2023/02/02 05:13:47;;;;;;;9.20;3.42;;;;;;;5.00;100.00;102094.44;4987499;28;20045;-70
2023/02/02 05:16:13;;;;;;;13.63;4.60;;;;;;;5.02;100.00;102095.06;5037419;28;20032;-70
2023/02/02 05:18:38;;;;;;;15.23;4.00;;;;;;;5.01;100.00;102094.19;5039995;28;20044;-70
2023/02/02 05:21:04;;;;;;;10.68;4.10;;;;;;;5.00;100.00;102091.69;5022714;28;20034;-70
2023/02/02 05:23:30;;;;;;;15.55;5.05;;;;;;;5.01;100.00;102091.44;5020188;28;20040;-70
2023/02/02 05:25:56;;;;;;;11.73;3.35;;;;;;;5.02;100.00;102098.66;5019696;28;20036;-70
2023/02/02 05:28:22;;;;;;;10.88;3.42;;;;;;;5.02;100.00;102098.66;5047371;28;20025;-70
2023/02/02 05:30:47;;;;;;;12.00;3.75;;;;;;;5.01;100.00;102098.88;5006607;28;20030;-70
2023/02/02 05:33:13;;;;;;;12.50;3.55;;;;;;;5.03;100.00;102097.59;5036291;28;20108;-70
2023/02/02 05:35:38;;;;;;;11.73;3.58;;;;;;;5.03;100.00;102096.75;5001015;28;20029;-70
2023/02/02 05:38:04;;;;;;;11.13;3.92;;;;;;;5.03;100.00;102091.25;5030949;28;20036;-70
2023/02/02 05:40:29;;;;;;;8.93;3.30;;;;;;;5.03;100.00;102097.59;5019761;28;20037;-70
2023/02/02 05:42:55;;;;;;;9.20;3.38;;;;;;;5.03;100.00;102094.00;5036207;28;20032;-70
2023/02/02 05:45:21;;;;;;;9.18;3.10;;;;;;;5.03;100.00;102092.09;5045355;28;20030;-70
2023/02/02 05:47:46;;;;;;;12.32;3.20;;;;;;;5.03;100.00;102089.34;5045283;28;20032;-70
2023/02/02 05:50:12;;;;;;;11.90;3.03;;;;;;;5.03;100.00;102086.59;5035998;28;20113;-70
2023/02/02 05:52:38;;;;;;;10.77;3.55;;;;;;;5.01;100.00;102096.97;5025339;28;20465;-70
2023/02/02 05:55:03;;;;;;;11.82;3.40;;;;;;;5.03;100.00;102091.25;5007075;28;20056;-70
2023/02/02 05:57:29;;;;;;;12.88;3.75;;;;;;;5.04;100.00;102093.78;4986572;28;20033;-70
2023/02/02 05:59:54;;;;;;;12.95;3.40;;;;;;;5.01;100.00;102099.72;5045201;28;21157;-70
2023/02/02 06:02:20;;;;;;;11.35;3.70;;;;;;;5.04;100.00;102096.56;5029046;28;20042;-71
2023/02/02 06:04:45;;;;;;;12.80;3.63;;;;;;;5.04;100.00;102092.94;5019226;28;20045;-70
2023/02/02 06:07:11;;;;;;;8.50;3.15;;;;;;;5.04;100.00;102099.31;5009296;28;20489;-71
2023/02/02 06:09:37;;;;;;;13.20;3.65;;;;;;;5.04;100.00;102102.06;5039102;28;20067;-70
2023/02/02 06:12:02;;;;;;;9.57;3.20;;;;;;;5.06;100.00;102115.59;5031382;28;20103;-70
2023/02/02 06:14:28;;;;;;;13.35;4.28;;;;;;;5.07;100.00;102120.03;5002149;28;20037;-70
2023/02/02 06:16:53;;;;;;;9.50;3.45;;;;;;;5.06;100.00;102135.72;5003138;28;20079;-70
2023/02/02 06:19:19;;;;;;;13.88;3.42;;;;;;;5.06;100.00;102129.38;5032848;28;20406;-70
2023/02/02 06:21:44;;;;;;;10.88;3.58;;;;;;;5.07;100.00;102142.06;5002072;28;20029;-70
2023/02/02 06:24:10;;;;;;;12.68;3.33;;;;;;;5.03;100.00;102136.16;5034721;28;20045;-71
2023/02/02 06:26:35;;;;;;;11.80;3.10;;;;;;;5.05;100.00;102139.53;5055422;28;20029;-70
2023/02/02 06:29:01;;;;;;;14.80;3.58;;;;;;;5.04;100.00;102139.75;5002342;28;20044;-70
2023/02/02 06:31:27;;;;;;;10.70;3.20;;;;;;;5.07;100.00;102142.06;5018825;28;20045;-70
2023/02/02 06:33:54;;;;;;;9.55;3.33;;;;;;;5.06;100.00;102137.63;5039650;28;20167;-70
2023/02/02 06:36:20;;;;;;;18.35;3.47;;;;;;;5.07;100.00;102142.06;5038897;28;20025;-70
2023/02/02 06:38:50;;;;;;;11.95;3.30;;;;;;;5.06;100.00;102143.13;5056769;28;20065;-70
2023/02/02 06:41:15;;;;;;;14.60;3.60;;;;;;;5.06;100.00;102146.72;5002190;28;20048;-70
2023/02/02 06:43:41;;;;;;;10.30;2.95;;;;;;;5.08;100.00;102146.53;5034771;28;20053;-70
2023/02/02 06:46:06;;;;;;;11.07;3.10;;;;;;;5.08;100.00;102150.13;5019950;28;20025;-70
2023/02/02 06:48:32;;;;;;;8.80;3.30;;;;;;;5.09;100.00;102146.28;5004452;28;20068;-70
2023/02/02 06:50:58;;;;;;;12.45;2.90;;;;;;;5.10;100.00;102152.66;5054914;28;20025;-70
2023/02/02 06:53:25;;;;;;;10.32;2.95;;;;;;;5.09;100.00;102146.28;5048856;28;20033;-70
2023/02/02 06:55:58;;;;;;;14.07;3.42;;;;;;;5.12;100.00;102145.00;5018536;28;20041;-70
2023/02/02 06:58:23;;;;;;;8.65;3.38;;;;;;;5.11;100.00;102146.91;5013881;28;20041;-71
2023/02/02 07:00:49;;;;;;;16.30;3.42;;;;;;;5.11;100.00;102152.44;5034444;28;20108;-70
2023/02/02 07:03:15;;;;;;;12.40;3.13;;;;;;;5.12;100.00;102153.28;5001878;28;20091;-70
2023/02/02 07:05:40;;;;;;;11.63;3.05;;;;;;;5.12;100.00;102156.88;5037035;28;20033;-70
2023/02/02 07:08:06;;;;;;;12.77;3.15;;;;;;;5.10;100.00;102159.00;5021533;28;20038;-70
2023/02/02 07:10:31;;;;;;;8.73;2.70;;;;;;;5.11;100.00;102154.34;5010969;28;20036;-70
2023/02/02 07:12:57;;;;;;;11.98;2.78;;;;;;;5.13;100.00;102152.22;5006558;28;20068;-70
2023/02/02 07:15:22;;;;;;;11.55;3.45;;;;;;;5.12;100.00;102162.38;5001528;28;20038;-70
2023/02/02 07:17:48;;;;;;;9.68;2.97;;;;;;;5.12;100.00;102164.28;5036950;28;20386;-70
2023/02/02 07:20:13;;;;;;;9.10;3.03;;;;;;;5.12;100.00;102167.03;5008269;28;20033;-71
2023/02/02 07:22:39;;;;;;;8.05;2.90;;;;;;;5.12;100.00;102162.38;5035525;28;20065;-70
2023/02/02 07:25:06;;;;;;;18.13;3.40;;;;;;;5.13;100.00;102175.09;5035621;28;20039;-70
2023/02/02 07:27:32;;;;;;;17.42;3.92;;;;;;;5.13;100.00;102185.28;5043374;28;20086;-71
2023/02/02 07:29:57;;;;;;;9.02;3.22;;;;;;;5.13;100.00;102179.78;5055277;28;20029;-70
2023/02/02 07:32:23;;;;;;;8.75;3.20;;;;;;;5.13;100.00;102183.38;5037611;28;20083;-70
2023/02/02 07:34:48;;;;;;;11.32;3.33;;;;;;;5.13;100.00;102171.50;5027572;28;20025;-70
2023/02/02 07:37:14;;;;;;;11.93;3.50;;;;;;;5.12;100.00;102184.41;5050611;28;20040;-70
2023/02/02 07:39:40;;;;;;;11.82;3.45;;;;;;;5.13;100.00;102188.03;5020850;28;20049;-70
2023/02/02 07:42:07;;;;;;;11.70;2.80;;;;;;;5.09;100.00;102189.50;5004081;28;20026;-70
2023/02/02 07:44:32;;;;;;;9.20;3.33;;;;;;;5.14;100.00;102187.78;4997496;28;20021;-70
2023/02/02 07:46:58;;;;;;;8.88;3.47;;;;;;;5.12;100.00;102194.59;5034778;28;20485;-70
2023/02/02 07:49:23;;;;;;;11.45;3.58;;;;;;;5.12;100.00;102183.56;5001077;28;20021;-70
2023/02/02 07:51:49;;;;;;;11.70;2.90;;;;;;;5.12;100.00;102187.16;5005062;28;20033;-70
2023/02/02 07:54:14;;;;;;;6.28;3.03;;;;;;;5.12;100.00;102184.41;4994261;28;20032;-71
2023/02/02 07:56:40;;;;;;;9.38;3.33;;;;;;;5.14;100.00;102182.28;5019733;28;20040;-70
2023/02/02 07:59:05;;;;;;;10.57;3.28;;;;;;;5.15;100.00;102188.63;5017567;28;20037;-70
2023/02/02 08:01:31;;;;;;;14.02;3.60;;;;;;;5.16;100.00;102195.84;5049116;28;20037;-71
2023/02/02 08:04:02;;;;;;;10.23;4.18;;;;;;;5.16;100.00;102195.84;5011251;28;20029;-71
2023/02/02 08:06:37;;;;;;;12.45;3.10;;;;;;;5.17;100.00;102193.94;5034890;28;20032;-71
2023/02/02 08:09:04;;;;;;;11.57;3.63;;;;;;;5.17;100.00;102203.03;5027527;28;20046;-71
2023/02/02 08:11:29;;;;;;;10.93;3.20;;;;;;;5.19;100.00;102186.31;5040418;28;20033;-71
2023/02/02 08:13:57;;;;;;;9.15;3.10;;;;;;;5.20;100.00;102193.50;5032895;28;20025;-71
2023/02/02 08:16:22;;;;;;;11.50;3.28;;;;;;;5.20;100.00;102193.50;5024459;28;20029;-71
2023/02/02 08:18:48;;;;;;;11.18;3.75;;;;;;;5.22;100.00;102194.13;5024496;28;20051;-71
2023/02/02 08:21:14;;;;;;;12.18;3.30;;;;;;;5.22;100.00;102203.25;5024397;28;20037;-70
2023/02/02 08:23:40;;;;;;;9.32;3.20;;;;;;;5.22;100.00;102202.41;5041268;28;20033;-71
2023/02/02 08:26:20;;;;;;;10.63;3.63;;;;;;;5.24;100.00;102198.38;5020964;28;20072;-71
2023/02/02 08:28:47;;;;;;;8.48;3.10;;;;;;;5.27;100.00;102210.88;5017302;28;20037;-71
2023/02/02 08:31:35;;;;;;;11.32;4.00;;;;;;;5.26;100.00;102217.41;5021106;28;20026;-71
2023/02/02 08:34:00;;;;;;;13.90;3.47;;;;;;;5.29;100.00;102211.47;5043312;28;20041;-71
2023/02/02 08:36:27;;;;;;;12.45;3.83;;;;;;;5.29;100.00;102212.34;5004560;28;20030;-71
2023/02/02 08:38:53;;;;;;;8.55;3.33;;;;;;;5.31;100.00;102206.59;5027054;28;20061;-71
2023/02/02 08:41:21;;;;;;;10.32;3.47;;;;;;;5.32;100.00;102205.53;5020335;28;20101;-71
2023/02/02 08:43:47;;;;;;;8.43;3.42;;;;;;;5.34;100.00;102200.66;4993945;28;20477;-71
2023/02/02 08:46:15;;;;;;;10.18;3.53;;;;;;;5.37;100.00;102202.97;5014125;28;20030;-71
2023/02/02 08:48:40;;;;;;;13.90;3.67;;;;;;;5.37;100.00;102214.00;5029473;28;20048;-70
2023/02/02 08:51:07;;;;;;;10.30;3.50;;;;;;;5.40;100.00;102216.31;5020523;28;20025;-70
2023/02/02 08:53:32;;;;;;;13.80;3.97;;;;;;;5.42;100.00;102222.44;5017104;28;20111;-70
2023/02/02 08:55:59;;;;;;;16.95;4.18;;;;;;;5.44;100.00;102225.00;5027074;28;20029;-70
2023/02/02 08:58:25;;;;;;;12.32;4.22;;;;;;;5.48;100.00;102224.31;5057234;28;20029;-71
2023/02/02 09:00:50;;;;;;;13.93;3.97;;;;;;;5.50;100.00;102230.47;5023426;28;20502;-71
2023/02/02 09:03:16;;;;;;;12.18;3.92;;;;;;;5.54;100.00;102234.50;5049162;28;20037;-71
2023/02/02 09:05:43;;;;;;;12.50;3.50;;;;;;;5.55;100.00;102233.44;5038006;28;20037;-71
2023/02/02 09:08:08;;;;;;;10.95;3.45;;;;;;;5.57;100.00;102236.81;5034210;28;20037;-71
2023/02/02 09:10:35;;;;;;;10.75;3.50;;;;;;;5.60;100.00;102244.66;5020330;28;20070;-71
2023/02/02 09:13:01;;;;;;;9.60;4.05;;;;;;;5.65;100.00;102254.16;5022065;28;20482;-71
2023/02/02 09:15:26;;;;;;;11.00;3.50;;;;;;;5.67;100.00;102254.78;5037939;28;20037;-71
2023/02/02 09:17:52;;;;;;;10.02;3.78;;;;;;;5.70;100.00;102252.44;5036010;28;20031;-71
2023/02/02 09:20:17;;;;;;;13.13;4.07;;;;;;;5.73;100.00;102256.66;4997055;28;20028;-71
2023/02/02 09:22:43;;;;;;;7.88;3.47;;;;;;;5.76;100.00;102261.75;5006129;28;20413;-71
2023/02/02 09:25:08;;;;;;;10.30;3.60;;;;;;;5.80;100.00;102257.50;5010794;28;20044;-71
2023/02/02 09:27:38;;;;;;;11.02;4.18;;;;;;;5.82;100.00;102261.72;5023632;28;20033;-71
2023/02/02 09:30:04;;;;;;;10.35;3.65;;;;;;;5.86;100.00;102262.13;5028932;28;20034;-71
2023/02/02 09:32:29;;;;;;;14.45;4.32;;;;;;;5.90;100.00;102270.78;5036763;28;20054;-71
2023/02/02 09:34:54;;;;;;;12.65;4.50;;;;;;;5.94;100.00;102274.84;5019961;28;20040;-71
2023/02/02 09:37:20;;;;;;;12.10;3.92;;;;;;;5.98;100.00;102276.09;5020824;28;20481;-70
2023/02/02 09:39:45;;;;;;;11.27;3.30;;;;;;;6.03;100.00;102277.13;5006450;28;20060;-71
2023/02/02 09:42:28;;;;;;;13.07;4.80;;;;;;;6.09;100.00;102286.44;5021082;28;20111;-71
2023/02/02 09:45:00;;;;;;;12.30;4.47;;;;;;;6.16;100.00;102284.50;5035477;28;20037;-70
2023/02/02 09:47:29;;;;;;;;;;;;;;;6.22;100.00;102288.28;5019398;28;20275;-71
2023/02/02 09:49:59;;;;;;;10.57;4.03;;;;;;;6.29;100.00;102289.06;5039992;28;20004;-70
2023/02/02 09:52:37;;;;;;;15.55;4.35;;;;;;;6.36;100.00;102295.38;5024971;28;20028;-70
2023/02/02 09:55:23;;;;;;;10.20;3.42;;;;;;;6.41;100.00;102308.53;5042804;28;20040;-71
2023/02/02 09:57:51;;;;;;;12.35;4.50;;;;;;;6.48;100.00;102303.78;5055743;28;20029;-71
2023/02/02 10:00:32;;;;;;;12.55;3.92;;;;;;;6.54;100.00;102300.13;4990684;28;20386;-71
2023/02/02 10:03:21;;;;;;;12.75;4.20;;;;;;;6.59;100.00;102305.84;5013136;28;20033;-70
2023/02/02 10:06:13;;;;;;;18.30;4.40;;;;;;;6.66;100.00;102297.53;5032089;28;20506;-71
2023/02/02 10:08:42;;;;;;;13.15;4.00;;;;;;;6.72;100.00;102302.97;5034247;28;20021;-71
2023/02/02 10:11:26;;;;;;;15.77;4.20;;;;;;;6.78;100.00;102298.47;5043641;28;20032;-70
2023/02/02 10:13:51;;;;;;;11.73;3.60;;;;;;;6.84;100.00;102292.03;5011694;28;20028;-71
2023/02/02 10:16:18;;;;;;;13.40;3.80;;;;;;;6.90;100.00;102293.06;5004213;28;20025;-71
2023/02/02 10:18:57;;;;;;;10.55;3.50;;;;;;;6.96;100.00;102285.78;4998334;28;20097;-70
2023/02/02 10:21:44;;;;;;;10.95;3.97;;;;;;;7.04;100.00;102293.78;5030847;28;20037;-71
2023/02/02 10:24:21;;;;;;;11.30;3.80;;;;;;;7.13;100.00;102293.28;5055452;28;20029;-71
2023/02/02 10:26:52;;;;;;;9.80;3.55;;;;;;;7.20;100.00;102293.19;5002275;28;20033;-71
2023/02/02 10:29:20;;;;;;;9.07;3.30;;;;;;;7.30;100.00;102292.66;5035438;28;20025;-70
2023/02/02 10:32:04;;;;;;;12.35;3.92;;;;;;;7.38;100.00;102304.28;5035289;28;20464;-72
2023/02/02 10:34:48;;;;;;;11.38;3.80;;;;;;;7.47;100.00;102310.34;5054608;28;20068;-71
2023/02/02 10:37:58;;;;;;;11.15;3.20;;;;;;;7.57;100.00;102318.09;5004943;28;20385;-71
2023/02/02 10:40:38;;;;;;;11.10;3.35;;;;;;;7.70;100.00;102317.13;5023915;28;20053;-71
2023/02/02 10:43:47;;;;;;;11.85;3.42;;;;;;;7.79;100.00;102327.63;5035047;28;20029;-70
2023/02/02 10:46:16;;;;;;;12.68;3.58;;;;;;;7.90;100.00;102319.63;5040786;28;20057;-70
2023/02/02 10:48:43;;;;;;;16.23;3.40;;;;;;;7.98;100.00;102322.09;5038780;28;20071;-71
2023/02/02 10:51:23;;;;;;;14.93;3.63;;;;;;;8.08;100.00;102319.63;4995038;28;20064;-71
2023/02/02 10:53:51;;;;;;;12.52;3.13;;;;;;;8.16;100.00;102335.03;5031768;28;20037;-71
2023/02/02 10:56:18;;;;;;;12.70;3.28;;;;;;;8.23;100.00;102331.13;5030040;28;20021;-71
2023/02/02 10:59:04;;;;;;;12.93;3.38;;;;;;;8.33;100.00;102335.22;5038465;28;20492;-71
2023/02/02 11:01:29;;;;;;;9.73;3.05;;;;;;;8.41;100.00;102329.41;5037450;28;20461;-71
2023/02/02 11:06:49;;;;;;;10.90;3.15;;;;;;;8.57;100.00;102334.28;5068020;28;20493;-71
2023/02/02 11:09:29;;;;;;;13.00;3.50;;;;;;;8.65;100.00;102333.94;5009853;28;20103;-70
2023/02/02 11:11:59;;;;;;;15.60;3.20;;;;;;;8.73;100.00;102333.59;5037718;28;20031;-70
2023/02/02 11:15:11;;;;;;;10.52;3.17;;;;;;;8.82;100.00;102324.94;4994362;28;20029;-70
2023/02/02 11:17:37;;;;;;;12.75;3.15;;;;;;;8.92;100.00;102320.50;5048783;28;20041;-70
2023/02/02 11:20:20;;;;;;;11.40;2.90;;;;;;;9.01;100.00;102322.94;5028219;28;20033;-71
2023/02/02 11:22:46;;;;;;;15.70;3.25;;;;;;;9.10;100.00;102322.31;4998009;28;20036;-70
2023/02/02 11:25:36;;;;;;;14.23;3.47;;;;;;;9.16;100.00;102307.53;5046034;28;20029;-71
2023/02/02 11:28:23;;;;;;;10.70;3.03;;;;;;;9.25;100.00;102307.13;5038827;28;20029;-71
2023/02/02 11:30:51;;;;;;;13.60;3.15;;;;;;;9.31;100.00;102307.03;5027931;28;20030;-71
2023/02/02 11:33:28;;;;;;;13.10;3.20;;;;;;;9.35;100.00;102308.22;5033578;28;20028;-71
2023/02/02 11:35:59;;;;;;;14.80;3.13;;;;;;;9.40;100.00;102304.72;5034978;28;20037;-72
2023/02/02 11:38:25;;;;;;;11.77;2.80;;;;;;;9.46;100.00;102300.97;5017819;28;20046;-71